sensor_id;sensor_type;location;lat;lon;timestamp;pressure;altitude;pressure_sealevel;temperature;humidity
30724;BME280;17473;52.286;20.930;2023-05-24T00:02:15;99890.81;;;18.82;47.37
30724;BME280;17473;52.286;20.930;2023-05-24T00:04:42;99887.19;;;18.89;47.41
30724;BME280;17473;52.286;20.930;2023-05-24T00:07:11;99889.06;;;18.79;47.79
30724;BME280;17473;52.286;20.930;2023-05-24T00:09:38;99880.19;;;18.72;47.68
30724;BME280;17473;52.286;20.930;2023-05-24T00:12:05;99885.53;;;18.74;48.04
30724;BME280;17473;52.286;20.930;2023-05-24T00:14:32;99884.72;;;18.67;48.19
30724;BME280;17473;52.286;20.930;2023-05-24T00:17:00;99880.09;;;18.83;47.69
30724;BME280;17473;52.286;20.930;2023-05-24T00:19:27;99887.38;;;18.67;48.30
30724;BME280;17473;52.286;20.930;2023-05-24T00:21:55;99877.47;;;18.80;48.17
30724;BME280;17473;52.286;20.930;2023-05-24T00:24:22;99882.88;;;18.69;48.03
30724;BME280;17473;52.286;20.930;2023-05-24T00:26:49;99878.53;;;18.57;48.68
30724;BME280;17473;52.286;20.930;2023-05-24T00:29:16;99876.78;;;18.53;49.01
30724;BME280;17473;52.286;20.930;2023-05-24T00:31:44;99870.44;;;18.68;48.50
30724;BME280;17473;52.286;20.930;2023-05-24T00:34:11;99875.81;;;18.65;48.21
30724;BME280;17473;52.286;20.930;2023-05-24T00:36:38;99869.47;;;18.74;48.24
30724;BME280;17473;52.286;20.930;2023-05-24T00:39:05;99866.88;;;18.66;48.42
30724;BME280;17473;52.286;20.930;2023-05-24T00:41:32;99872.19;;;18.69;48.88
30724;BME280;17473;52.286;20.930;2023-05-24T00:43:59;99866.97;;;18.55;48.72
30724;BME280;17473;52.286;20.930;2023-05-24T00:46:29;99861.69;;;18.44;48.75
30724;BME280;17473;52.286;20.930;2023-05-24T00:48:59;99872.28;;;18.61;48.62
30724;BME280;17473;52.286;20.930;2023-05-24T00:51:27;99868.66;;;18.66;48.32
30724;BME280;17473;52.286;20.930;2023-05-24T00:53:55;99874.03;;;18.63;48.39
30724;BME280;17473;52.286;20.930;2023-05-24T00:56:22;99874.03;;;18.61;48.70
30724;BME280;17473;52.286;20.930;2023-05-24T00:58:51;99865.06;;;18.70;48.30
30724;BME280;17473;52.286;20.930;2023-05-24T01:01:21;99865.22;;;18.48;48.58
30724;BME280;17473;52.286;20.930;2023-05-24T01:03:52;99863.34;;;18.63;48.41
30724;BME280;17473;52.286;20.930;2023-05-24T01:06:21;99860.72;;;18.55;48.24
30724;BME280;17473;52.286;20.930;2023-05-24T01:15:07;99864.38;;;18.46;48.83
30724;BME280;17473;52.286;20.930;2023-05-24T01:18:15;99867.88;;;18.54;48.68
30724;BME280;17473;52.286;20.930;2023-05-24T01:20:43;99868.00;;;18.33;49.09
30724;BME280;17473;52.286;20.930;2023-05-24T01:29:31;99875.13;;;18.37;49.33
30724;BME280;17473;52.286;20.930;2023-05-24T01:32:00;99877.75;;;18.40;49.22
30724;BME280;17473;52.286;20.930;2023-05-24T01:34:28;99877.75;;;18.43;49.23
30724;BME280;17473;52.286;20.930;2023-05-24T01:36:55;99862.69;;;18.25;49.44
30724;BME280;17473;52.286;20.930;2023-05-24T01:39:26;99877.72;;;18.48;49.21
30724;BME280;17473;52.286;20.930;2023-05-24T01:48:18;99876.03;;;18.31;49.58
30724;BME280;17473;52.286;20.930;2023-05-24T01:50:58;99878.69;;;18.36;49.18
30724;BME280;17473;52.286;20.930;2023-05-24T01:53:34;99878.69;;;18.33;49.17
30724;BME280;17473;52.286;20.930;2023-05-24T01:56:05;99885.84;;;18.26;49.54
30724;BME280;17473;52.286;20.930;2023-05-24T01:58:34;99881.44;;;18.22;49.13
30724;BME280;17473;52.286;20.930;2023-05-24T02:01:02;99877.84;;;18.21;49.30
30724;BME280;17473;52.286;20.930;2023-05-24T02:03:30;99884.97;;;18.22;49.33
30724;BME280;17473;52.286;20.930;2023-05-24T02:05:57;99884.13;;;18.11;49.55
30724;BME280;17473;52.286;20.930;2023-05-24T02:08:24;99891.25;;;18.12;49.55
30724;BME280;17473;52.286;20.930;2023-05-24T02:10:52;99888.63;;;18.09;49.46
30724;BME280;17473;52.286;20.930;2023-05-24T02:13:19;99880.66;;;17.96;49.78
30724;BME280;17473;52.286;20.930;2023-05-24T02:15:46;99883.28;;;17.93;50.04
30724;BME280;17473;52.286;20.930;2023-05-24T02:18:13;99881.53;;;18.00;50.04
30724;BME280;17473;52.286;20.930;2023-05-24T02:20:44;99882.41;;;18.04;49.99
30724;BME280;17473;52.286;20.930;2023-05-24T02:23:12;99880.56;;;18.12;50.03
30724;BME280;17473;52.286;20.930;2023-05-24T02:25:39;99882.38;;;18.11;50.04
30724;BME280;17473;52.286;20.930;2023-05-24T02:28:06;99887.75;;;17.90;50.42
30724;BME280;17473;52.286;20.930;2023-05-24T02:30:33;99887.81;;;17.83;50.75
30724;BME280;17473;52.286;20.930;2023-05-24T02:33:00;99886.00;;;17.84;50.80
30724;BME280;17473;52.286;20.930;2023-05-24T02:35:27;99894.00;;;17.87;50.85
30724;BME280;17473;52.286;20.930;2023-05-24T02:37:55;99890.50;;;17.71;51.31
30724;BME280;17473;52.286;20.930;2023-05-24T02:40:24;99884.22;;;17.91;50.17
30724;BME280;17473;52.286;20.930;2023-05-24T02:42:52;99896.66;;;17.92;50.47
30724;BME280;17473;52.286;20.930;2023-05-24T02:45:19;99884.28;;;17.75;50.13
30724;BME280;17473;52.286;20.930;2023-05-24T02:47:46;99886.06;;;17.73;50.82
30724;BME280;17473;52.286;20.930;2023-05-24T02:50:13;99887.84;;;17.77;51.28
30724;BME280;17473;52.286;20.930;2023-05-24T02:52:40;99886.06;;;17.79;51.48
30724;BME280;17473;52.286;20.930;2023-05-24T02:55:08;99882.44;;;17.97;51.04
30724;BME280;17473;52.286;20.930;2023-05-24T02:57:35;99883.34;;;17.84;51.37
30724;BME280;17473;52.286;20.930;2023-05-24T03:00:05;99877.13;;;17.80;51.78
30724;BME280;17473;52.286;20.930;2023-05-24T03:02:35;99892.28;;;17.80;51.60
30724;BME280;17473;52.286;20.930;2023-05-24T03:05:05;99886.94;;;17.77;51.62
30724;BME280;17473;52.286;20.930;2023-05-24T03:07:32;99887.00;;;17.57;52.22
30724;BME280;17473;52.286;20.930;2023-05-24T03:09:59;99892.31;;;17.61;51.98
30724;BME280;17473;52.286;20.930;2023-05-24T03:12:26;99884.28;;;17.74;51.72
30724;BME280;17473;52.286;20.930;2023-05-24T03:14:53;99894.94;;;17.72;51.15
30724;BME280;17473;52.286;20.930;2023-05-24T03:17:20;99896.72;;;17.76;51.51
30724;BME280;17473;52.286;20.930;2023-05-24T03:19:48;99889.63;;;17.67;52.02
30724;BME280;17473;52.286;20.930;2023-05-24T03:22:15;99898.53;;;17.68;52.07
30724;BME280;17473;52.286;20.930;2023-05-24T03:24:42;99898.53;;;17.66;52.01
30724;BME280;17473;52.286;20.930;2023-05-24T03:27:09;99899.38;;;17.86;51.99
30724;BME280;17473;52.286;20.930;2023-05-24T03:29:36;99905.59;;;17.88;51.45
30724;BME280;17473;52.286;20.930;2023-05-24T03:32:03;99894.00;;;17.84;51.83
30724;BME280;17473;52.286;20.930;2023-05-24T03:34:31;99904.69;;;17.84;52.05
30724;BME280;17473;52.286;20.930;2023-05-24T03:36:58;99905.66;;;17.66;52.85
30724;BME280;17473;52.286;20.930;2023-05-24T03:39:25;99904.72;;;17.78;52.73
30724;BME280;17473;52.286;20.930;2023-05-24T03:41:52;99898.44;;;17.90;52.61
30724;BME280;17473;52.286;20.930;2023-05-24T03:44:19;99899.38;;;17.78;52.82
30724;BME280;17473;52.286;20.930;2023-05-24T03:46:46;99899.38;;;17.78;53.02
30724;BME280;17473;52.286;20.930;2023-05-24T03:49:13;99903.72;;;18.19;51.89
30724;BME280;17473;52.286;20.930;2023-05-24T03:51:41;99905.50;;;18.11;52.39
30724;BME280;17473;52.286;20.930;2023-05-24T03:54:08;99902.88;;;18.05;51.67
30724;BME280;17473;52.286;20.930;2023-05-24T03:56:36;99922.41;;;18.24;52.22
30724;BME280;17473;52.286;20.930;2023-05-24T03:59:03;99916.09;;;18.29;52.14
30724;BME280;17473;52.286;20.930;2023-05-24T04:01:30;99918.34;;;19.01;51.03
30724;BME280;17473;52.286;20.930;2023-05-24T04:04:02;99922.72;;;20.01;48.07
30724;BME280;17473;52.286;20.930;2023-05-24T04:06:29;99924.97;;;20.32;47.42
30724;BME280;17473;52.286;20.930;2023-05-24T04:08:58;99918.47;;;19.79;48.01
30724;BME280;17473;52.286;20.930;2023-05-24T04:11:25;99926.91;;;19.43;49.05
30724;BME280;17473;52.286;20.930;2023-05-24T04:13:57;99926.06;;;19.36;49.56
30724;BME280;17473;52.286;20.930;2023-05-24T04:16:27;99925.28;;;19.27;48.83
30724;BME280;17473;52.286;20.930;2023-05-24T04:18:55;99930.81;;;19.02;49.97
30724;BME280;17473;52.286;20.930;2023-05-24T04:21:22;99936.16;;;19.02;50.30
30724;BME280;17473;52.286;20.930;2023-05-24T04:23:49;99936.97;;;19.13;49.67
30724;BME280;17473;52.286;20.930;2023-05-24T04:26:16;99936.13;;;19.08;49.72
30724;BME280;17473;52.286;20.930;2023-05-24T04:28:44;99946.94;;;18.94;49.69
30724;BME280;17473;52.286;20.930;2023-05-24T04:31:14;99942.44;;;18.99;50.25
30724;BME280;17473;52.286;20.930;2023-05-24T04:33:42;99943.97;;;19.28;49.13
30724;BME280;17473;52.286;20.930;2023-05-24T04:36:09;99945.72;;;19.34;48.11
30724;BME280;17473;52.286;20.930;2023-05-24T04:38:38;99954.19;;;19.78;46.63
30724;BME280;17473;52.286;20.930;2023-05-24T04:41:06;99949.75;;;19.75;46.36
30724;BME280;17473;52.286;20.930;2023-05-24T04:43:34;99945.66;;;19.40;47.25
30724;BME280;17473;52.286;20.930;2023-05-24T04:46:01;99944.50;;;19.66;46.66
30724;BME280;17473;52.286;20.930;2023-05-24T04:48:28;99955.38;;;19.50;46.58
30724;BME280;17473;52.286;20.930;2023-05-24T04:50:57;99948.94;;;19.70;46.76
30724;BME280;17473;52.286;20.930;2023-05-24T04:53:24;99954.28;;;19.70;46.59
30724;BME280;17473;52.286;20.930;2023-05-24T04:55:51;99950.72;;;19.71;46.49
30724;BME280;17473;52.286;20.930;2023-05-24T04:58:18;99953.78;;;19.29;46.98
30724;BME280;17473;52.286;20.930;2023-05-24T05:00:46;99955.50;;;19.36;47.15
30724;BME280;17473;52.286;20.930;2023-05-24T05:03:13;99956.59;;;19.12;47.72
30724;BME280;17473;52.286;20.930;2023-05-24T05:05:40;99960.16;;;19.17;47.12
30724;BME280;17473;52.286;20.930;2023-05-24T05:08:07;99962.44;;;19.58;46.58
30724;BME280;17473;52.286;20.930;2023-05-24T05:10:35;99969.75;;;20.27;45.32
30724;BME280;17473;52.286;20.930;2023-05-24T05:13:03;99966.00;;;22.50;41.10
30724;BME280;17473;52.286;20.930;2023-05-24T05:15:30;99961.22;;;24.38;37.09
30724;BME280;17473;52.286;20.930;2023-05-24T05:17:58;99966.13;;;24.85;36.16
30724;BME280;17473;52.286;20.930;2023-05-24T05:20:26;99964.06;;;25.20;34.80
30724;BME280;17473;52.286;20.930;2023-05-24T05:22:53;99972.75;;;25.57;34.98
30724;BME280;17473;52.286;20.930;2023-05-24T05:25:20;99976.72;;;26.22;33.97
30724;BME280;17473;52.286;20.930;2023-05-24T05:27:47;99971.72;;;29.63;28.67
30724;BME280;17473;52.286;20.930;2023-05-24T05:30:15;99977.31;;;29.95;28.34
30724;BME280;17473;52.286;20.930;2023-05-24T05:32:42;99978.03;;;29.81;28.53
30724;BME280;17473;52.286;20.930;2023-05-24T05:35:09;99976.53;;;29.40;28.48
30724;BME280;17473;52.286;20.930;2023-05-24T05:37:36;99990.78;;;27.26;31.13
30724;BME280;17473;52.286;20.930;2023-05-24T05:40:04;99983.63;;;28.68;28.71
30724;BME280;17473;52.286;20.930;2023-05-24T05:42:31;99988.03;;;29.63;27.22
30724;BME280;17473;52.286;20.930;2023-05-24T05:44:58;99993.19;;;30.87;25.87
30724;BME280;17473;52.286;20.930;2023-05-24T05:47:25;99979.00;;;29.45;27.38
30724;BME280;17473;52.286;20.930;2023-05-24T05:49:52;99990.31;;;27.37;29.93
30724;BME280;17473;52.286;20.930;2023-05-24T05:52:20;99992.47;;;28.73;28.64
30724;BME280;17473;52.286;20.930;2023-05-24T05:54:47;99986.06;;;31.94;24.97
30724;BME280;17473;52.286;20.930;2023-05-24T05:57:14;100000.53;;;32.25;24.04
30724;BME280;17473;52.286;20.930;2023-05-24T05:59:42;99998.78;;;32.67;23.62
30724;BME280;17473;52.286;20.930;2023-05-24T06:02:09;100003.75;;;32.46;23.67
30724;BME280;17473;52.286;20.930;2023-05-24T06:04:38;100010.84;;;30.96;25.80
30724;BME280;17473;52.286;20.930;2023-05-24T06:07:05;100005.38;;;33.74;22.90
30724;BME280;17473;52.286;20.930;2023-05-24T06:09:32;99998.19;;;33.86;22.54
30724;BME280;17473;52.286;20.930;2023-05-24T06:11:59;100005.03;;;33.93;22.30
30724;BME280;17473;52.286;20.930;2023-05-24T06:14:27;100003.88;;;36.19;20.27
30724;BME280;17473;52.286;20.930;2023-05-24T06:16:54;100007.13;;;37.04;20.07
30724;BME280;17473;52.286;20.930;2023-05-24T06:19:23;100000.81;;;38.11;18.53
30724;BME280;17473;52.286;20.930;2023-05-24T06:21:50;99991.91;;;39.00;18.14
30724;BME280;17473;52.286;20.930;2023-05-24T06:24:18;100003.22;;;39.87;17.65
30724;BME280;17473;52.286;20.930;2023-05-24T06:26:50;100005.97;;;39.67;17.17
30724;BME280;17473;52.286;20.930;2023-05-24T06:29:18;100014.22;;;37.83;18.44
30724;BME280;17473;52.286;20.930;2023-05-24T06:31:50;100016.22;;;36.36;19.43
30724;BME280;17473;52.286;20.930;2023-05-24T06:34:20;100027.59;;;34.23;21.09
30724;BME280;17473;52.286;20.930;2023-05-24T06:36:48;100027.56;;;32.87;22.32
30724;BME280;17473;52.286;20.930;2023-05-24T06:39:16;100026.66;;;32.72;22.80
30724;BME280;17473;52.286;20.930;2023-05-24T06:41:44;100029.25;;;30.59;24.73
30724;BME280;17473;52.286;20.930;2023-05-24T06:44:13;100039.56;;;30.19;25.48
30724;BME280;17473;52.286;20.930;2023-05-24T06:46:40;100036.03;;;29.64;26.66
30724;BME280;17473;52.286;20.930;2023-05-24T06:49:07;100039.00;;;29.59;26.49
30724;BME280;17473;52.286;20.930;2023-05-24T06:51:34;100040.81;;;29.59;26.57
30724;BME280;17473;52.286;20.930;2023-05-24T06:54:03;100047.25;;;29.39;27.26
30724;BME280;17473;52.286;20.930;2023-05-24T06:56:30;100047.66;;;28.93;27.86
30724;BME280;17473;52.286;20.930;2023-05-24T06:58:59;100048.63;;;28.92;27.78
30724;BME280;17473;52.286;20.930;2023-05-24T07:01:27;100049.09;;;29.19;26.86
30724;BME280;17473;52.286;20.930;2023-05-24T07:03:55;100047.06;;;32.23;23.70
30724;BME280;17473;52.286;20.930;2023-05-24T07:06:22;100050.78;;;33.22;22.63
30724;BME280;17473;52.286;20.930;2023-05-24T07:08:49;100055.34;;;31.45;24.01
30724;BME280;17473;52.286;20.930;2023-05-24T07:11:16;100045.72;;;30.73;25.12
30724;BME280;17473;52.286;20.930;2023-05-24T07:13:43;100051.53;;;30.83;25.52
30724;BME280;17473;52.286;20.930;2023-05-24T07:16:10;100045.69;;;30.57;25.45
30724;BME280;17473;52.286;20.930;2023-05-24T07:18:37;100050.59;;;32.09;24.46
30724;BME280;17473;52.286;20.930;2023-05-24T07:21:07;100058.59;;;33.70;22.65
30724;BME280;17473;52.286;20.930;2023-05-24T07:23:34;100054.03;;;34.50;21.81
30724;BME280;17473;52.286;20.930;2023-05-24T07:26:03;100063.56;;;35.57;20.83
30724;BME280;17473;52.286;20.930;2023-05-24T07:28:31;100066.38;;;37.08;19.53
30724;BME280;17473;52.286;20.930;2023-05-24T07:30:59;100072.38;;;37.13;19.67
30724;BME280;17473;52.286;20.930;2023-05-24T07:33:26;100073.88;;;36.83;19.97
30724;BME280;17473;52.286;20.930;2023-05-24T07:35:53;100077.00;;;35.84;20.54
30724;BME280;17473;52.286;20.930;2023-05-24T07:38:20;100083.22;;;34.23;21.80
30724;BME280;17473;52.286;20.930;2023-05-24T07:40:47;100084.84;;;33.03;23.35
30724;BME280;17473;52.286;20.930;2023-05-24T07:43:15;100090.84;;;31.91;24.69
30724;BME280;17473;52.286;20.930;2023-05-24T07:45:42;100078.16;;;32.35;24.30
30724;BME280;17473;52.286;20.930;2023-05-24T07:48:09;100086.88;;;32.71;24.07
30724;BME280;17473;52.286;20.930;2023-05-24T07:50:36;100090.91;;;33.50;23.29
30724;BME280;17473;52.286;20.930;2023-05-24T07:53:04;100088.78;;;33.68;23.41
30724;BME280;17473;52.286;20.930;2023-05-24T07:55:32;100091.53;;;33.96;22.94
30724;BME280;17473;52.286;20.930;2023-05-24T07:57:59;100093.03;;;33.87;22.34
30724;BME280;17473;52.286;20.930;2023-05-24T08:00:26;100098.50;;;32.89;23.44
30724;BME280;17473;52.286;20.930;2023-05-24T08:02:53;100097.50;;;33.33;22.74
30724;BME280;17473;52.286;20.930;2023-05-24T08:05:20;100090.75;;;34.60;21.56
30724;BME280;17473;52.286;20.930;2023-05-24T08:07:47;100094.34;;;34.73;21.62
30724;BME280;17473;52.286;20.930;2023-05-24T08:10:18;100091.16;;;35.30;21.05
30724;BME280;17473;52.286;20.930;2023-05-24T08:12:45;100106.06;;;35.51;21.05
30724;BME280;17473;52.286;20.930;2023-05-24T08:15:12;100095.97;;;35.02;21.45
30724;BME280;17473;52.286;20.930;2023-05-24T08:17:39;100106.06;;;34.75;21.98
30724;BME280;17473;52.286;20.930;2023-05-24T08:20:07;100098.31;;;34.03;22.47
30724;BME280;17473;52.286;20.930;2023-05-24T08:22:36;100107.41;;;32.78;22.82
30724;BME280;17473;52.286;20.930;2023-05-24T08:25:04;100102.13;;;32.89;23.24
30724;BME280;17473;52.286;20.930;2023-05-24T08:27:32;100106.25;;;32.23;24.28
30724;BME280;17473;52.286;20.930;2023-05-24T08:30:00;100106.38;;;30.93;25.18
30724;BME280;17473;52.286;20.930;2023-05-24T08:32:27;100110.97;;;31.09;25.51
30724;BME280;17473;52.286;20.930;2023-05-24T08:34:54;100107.91;;;30.65;25.96
30724;BME280;17473;52.286;20.930;2023-05-24T08:37:36;100106.59;;;31.86;25.17
30724;BME280;17473;52.286;20.930;2023-05-24T08:40:04;100110.22;;;31.38;25.13
30724;BME280;17473;52.286;20.930;2023-05-24T08:42:31;100103.03;;;32.30;24.79
30724;BME280;17473;52.286;20.930;2023-05-24T08:45:13;100100.75;;;31.92;24.33
30724;BME280;17473;52.286;20.930;2023-05-24T08:47:41;100117.53;;;31.38;25.55
30724;BME280;17473;52.286;20.930;2023-05-24T08:50:09;100114.34;;;31.14;25.60
30724;BME280;17473;52.286;20.930;2023-05-24T08:52:37;100110.94;;;30.41;25.96
30724;BME280;17473;52.286;20.930;2023-05-24T08:55:06;100119.78;;;29.38;27.25
30724;BME280;17473;52.286;20.930;2023-05-24T08:57:35;100128.34;;;29.67;27.29
30724;BME280;17473;52.286;20.930;2023-05-24T09:00:10;100125.94;;;29.78;27.12
30724;BME280;17473;52.286;20.930;2023-05-24T09:02:40;100136.94;;;29.00;28.27
30724;BME280;17473;52.286;20.930;2023-05-24T09:05:13;100131.66;;;28.97;28.40
30724;BME280;17473;52.286;20.930;2023-05-24T09:07:44;100131.47;;;28.61;28.40
30724;BME280;17473;52.286;20.930;2023-05-24T09:10:11;100127.56;;;28.68;27.75
30724;BME280;17473;52.286;20.930;2023-05-24T09:12:43;100133.25;;;28.20;28.78
30724;BME280;17473;52.286;20.930;2023-05-24T09:15:11;100143.06;;;27.58;30.04
30724;BME280;17473;52.286;20.930;2023-05-24T09:17:38;100127.75;;;27.79;29.43
30724;BME280;17473;52.286;20.930;2023-05-24T09:20:07;100149.00;;;27.68;30.08
30724;BME280;17473;52.286;20.930;2023-05-24T09:22:37;100151.94;;;27.61;30.00
30724;BME280;17473;52.286;20.930;2023-05-24T09:25:11;100138.59;;;27.79;29.96
30724;BME280;17473;52.286;20.930;2023-05-24T09:27:39;100147.34;;;27.86;29.75
30724;BME280;17473;52.286;20.930;2023-05-24T09:30:09;100137.00;;;28.38;29.83
30724;BME280;17473;52.286;20.930;2023-05-24T09:32:36;100150.69;;;28.56;29.72
30724;BME280;17473;52.286;20.930;2023-05-24T09:35:07;100151.13;;;28.04;29.74
30724;BME280;17473;52.286;20.930;2023-05-24T09:37:36;100159.31;;;28.24;30.04
30724;BME280;17473;52.286;20.930;2023-05-24T09:40:17;100156.66;;;28.01;30.17
30724;BME280;17473;52.286;20.930;2023-05-24T09:42:46;100154.50;;;28.10;29.88
30724;BME280;17473;52.286;20.930;2023-05-24T09:45:17;100161.97;;;28.26;29.73
30724;BME280;17473;52.286;20.930;2023-05-24T09:47:44;100155.81;;;28.00;30.03
30724;BME280;17473;52.286;20.930;2023-05-24T09:50:14;100162.84;;;28.04;29.57
30724;BME280;17473;52.286;20.930;2023-05-24T09:52:42;100160.28;;;28.01;29.98
30724;BME280;17473;52.286;20.930;2023-05-24T09:58:06;100160.88;;;27.87;29.99
30724;BME280;17473;52.286;20.930;2023-05-24T10:00:39;100155.59;;;28.05;29.93
30724;BME280;17473;52.286;20.930;2023-05-24T10:03:10;100153.06;;;28.43;29.71
30724;BME280;17473;52.286;20.930;2023-05-24T10:05:42;100153.34;;;28.57;29.40
30724;BME280;17473;52.286;20.930;2023-05-24T10:08:11;100159.94;;;28.31;29.61
30724;BME280;17473;52.286;20.930;2023-05-24T10:10:38;100164.13;;;28.38;29.86
30724;BME280;17473;52.286;20.930;2023-05-24T10:13:05;100156.75;;;28.83;29.41
30724;BME280;17473;52.286;20.930;2023-05-24T10:15:33;100169.22;;;28.67;31.86
30724;BME280;17473;52.286;20.930;2023-05-24T10:18:00;100165.66;;;28.46;32.27
30724;BME280;17473;52.286;20.930;2023-05-24T10:20:37;100173.91;;;28.42;32.29
30724;BME280;17473;52.286;20.930;2023-05-24T10:23:07;100171.81;;;28.49;32.51
30724;BME280;17473;52.286;20.930;2023-05-24T10:25:40;100173.59;;;27.63;34.23
30724;BME280;17473;52.286;20.930;2023-05-24T10:28:12;100179.56;;;27.01;34.99
30724;BME280;17473;52.286;20.930;2023-05-24T10:31:06;100176.69;;;28.20;33.10
30724;BME280;17473;52.286;20.930;2023-05-24T10:33:37;100170.47;;;28.80;32.10
30724;BME280;17473;52.286;20.930;2023-05-24T10:36:07;100167.66;;;28.61;32.65
30724;BME280;17473;52.286;20.930;2023-05-24T10:38:37;100170.03;;;28.89;32.08
30724;BME280;17473;52.286;20.930;2023-05-24T10:41:08;100178.97;;;28.72;32.73
30724;BME280;17473;52.286;20.930;2023-05-24T10:43:36;100175.03;;;28.99;32.23
30724;BME280;17473;52.286;20.930;2023-05-24T10:46:07;100180.69;;;28.32;32.63
30724;BME280;17473;52.286;20.930;2023-05-24T10:48:38;100177.25;;;28.91;32.30
30724;BME280;17473;52.286;20.930;2023-05-24T10:51:30;100186.53;;;29.25;31.43
30724;BME280;17473;52.286;20.930;2023-05-24T10:54:18;100185.28;;;29.13;31.57
30724;BME280;17473;52.286;20.930;2023-05-24T10:56:48;100188.78;;;29.55;30.90
30724;BME280;17473;52.286;20.930;2023-05-24T10:59:41;100186.41;;;29.47;31.39
30724;BME280;17473;52.286;20.930;2023-05-24T11:02:11;100191.22;;;29.02;31.44
30724;BME280;17473;52.286;20.930;2023-05-24T11:04:45;100193.94;;;28.40;31.87
30724;BME280;17473;52.286;20.930;2023-05-24T11:07:14;100194.03;;;28.80;32.00
30724;BME280;17473;52.286;20.930;2023-05-24T11:09:41;100194.44;;;28.91;31.99
30724;BME280;17473;52.286;20.930;2023-05-24T11:12:17;100200.91;;;29.47;31.21
30724;BME280;17473;52.286;20.930;2023-05-24T11:14:50;100197.03;;;29.13;32.20
30724;BME280;17473;52.286;20.930;2023-05-24T11:17:22;100196.28;;;29.10;31.21
30724;BME280;17473;52.286;20.930;2023-05-24T11:19:52;100190.81;;;28.91;31.97
30724;BME280;17473;52.286;20.930;2023-05-24T11:22:22;100202.88;;;28.42;32.97
30724;BME280;17473;52.286;20.930;2023-05-24T11:24:51;100192.25;;;28.99;31.84
30724;BME280;17473;52.286;20.930;2023-05-24T11:27:19;100192.03;;;28.63;32.17
30724;BME280;17473;52.286;20.930;2023-05-24T11:29:47;100202.34;;;28.54;32.53
30724;BME280;17473;52.286;20.930;2023-05-24T11:32:17;100209.06;;;28.66;32.61
30724;BME280;17473;52.286;20.930;2023-05-24T11:34:48;100193.38;;;28.52;32.60
30724;BME280;17473;52.286;20.930;2023-05-24T11:37:16;100198.72;;;28.76;32.37
30724;BME280;17473;52.286;20.930;2023-05-24T11:39:49;100195.19;;;28.95;32.40
30724;BME280;17473;52.286;20.930;2023-05-24T11:42:21;100194.75;;;29.04;33.01
30724;BME280;17473;52.286;20.930;2023-05-24T11:44:49;100198.19;;;28.66;33.64
30724;BME280;17473;52.286;20.930;2023-05-24T11:47:19;100207.13;;;28.91;33.72
30724;BME280;17473;52.286;20.930;2023-05-24T11:49:51;100199.06;;;28.89;33.46
30724;BME280;17473;52.286;20.930;2023-05-24T11:52:18;100193.94;;;28.81;33.82
30724;BME280;17473;52.286;20.930;2023-05-24T11:54:45;100199.88;;;28.91;33.05
30724;BME280;17473;52.286;20.930;2023-05-24T11:57:13;100199.38;;;28.81;33.30
30724;BME280;17473;52.286;20.930;2023-05-24T11:59:40;100197.41;;;28.85;33.78
30724;BME280;17473;52.286;20.930;2023-05-24T12:02:07;100200.00;;;28.88;33.20
30724;BME280;17473;52.286;20.930;2023-05-24T12:04:35;100200.09;;;29.05;32.96
30724;BME280;17473;52.286;20.930;2023-05-24T12:07:02;100204.38;;;29.11;33.75
30724;BME280;17473;52.286;20.930;2023-05-24T12:09:29;100197.56;;;29.22;33.64
30724;BME280;17473;52.286;20.930;2023-05-24T12:11:56;100199.16;;;29.46;33.09
30724;BME280;17473;52.286;20.930;2023-05-24T12:14:28;100193.91;;;29.23;33.44
30724;BME280;17473;52.286;20.930;2023-05-24T12:16:59;100194.69;;;29.25;33.42
30724;BME280;17473;52.286;20.930;2023-05-24T12:19:31;100185.13;;;29.16;33.77
30724;BME280;17473;52.286;20.930;2023-05-24T12:22:05;100196.38;;;29.27;33.56
30724;BME280;17473;52.286;20.930;2023-05-24T12:24:33;100195.75;;;29.41;32.63
30724;BME280;17473;52.286;20.930;2023-05-24T12:27:03;100198.25;;;29.46;33.15
30724;BME280;17473;52.286;20.930;2023-05-24T12:29:43;100194.75;;;29.44;33.73
30724;BME280;17473;52.286;20.930;2023-05-24T12:32:11;100184.94;;;29.59;33.67
30724;BME280;17473;52.286;20.930;2023-05-24T12:34:42;100185.97;;;29.18;33.61
30724;BME280;17473;52.286;20.930;2023-05-24T12:37:11;100179.63;;;28.98;33.95
30724;BME280;17473;52.286;20.930;2023-05-24T12:39:39;100179.56;;;28.79;34.25
30724;BME280;17473;52.286;20.930;2023-05-24T12:42:10;100184.47;;;29.11;33.59
30724;BME280;17473;52.286;20.930;2023-05-24T12:44:39;100178.94;;;28.93;34.22
30724;BME280;17473;52.286;20.930;2023-05-24T12:47:07;100175.34;;;28.93;33.55
30724;BME280;17473;52.286;20.930;2023-05-24T12:49:35;100180.00;;;28.48;34.67
30724;BME280;17473;52.286;20.930;2023-05-24T12:52:03;100178.41;;;28.85;33.85
30724;BME280;17473;52.286;20.930;2023-05-24T12:54:30;100179.41;;;29.03;34.17
30724;BME280;17473;52.286;20.930;2023-05-24T12:56:58;100178.50;;;29.02;34.10
30724;BME280;17473;52.286;20.930;2023-05-24T12:59:26;100171.78;;;28.71;33.98
30724;BME280;17473;52.286;20.930;2023-05-24T13:01:54;100186.78;;;28.17;34.60
30724;BME280;17473;52.286;20.930;2023-05-24T13:04:23;100180.38;;;28.40;34.08
30724;BME280;17473;52.286;20.930;2023-05-24T13:06:53;100183.13;;;28.38;34.83
30724;BME280;17473;52.286;20.930;2023-05-24T13:09:20;100176.75;;;28.39;34.39
30724;BME280;17473;52.286;20.930;2023-05-24T13:11:50;100180.56;;;28.35;34.74
30724;BME280;17473;52.286;20.930;2023-05-24T13:14:18;100171.63;;;28.54;35.44
30724;BME280;17473;52.286;20.930;2023-05-24T13:16:46;100168.84;;;28.76;34.96